sensor_id;sensor_type;location;lat;lon;timestamp;pressure;altitude;pressure_sealevel;temperature;humidity
6030;BME280;3043;42.682;23.376;2023-05-02T00:02:10;95263.69;;;12.68;100.00
6030;BME280;3043;42.682;23.376;2023-05-02T00:04:36;95268.88;;;12.68;100.00
6030;BME280;3043;42.682;23.376;2023-05-02T00:07:01;95274.16;;;12.65;100.00
6030;BME280;3043;42.682;23.376;2023-05-02T00:09:28;95269.16;;;12.58;100.00
6030;BME280;3043;42.682;23.376;2023-05-02T00:11:53;95269.16;;;12.58;100.00
6030;BME280;3043;42.682;23.376;2023-05-02T00:14:19;95262.34;;;12.54;100.00
6030;BME280;3043;42.682;23.376;2023-05-02T00:16:44;95257.16;;;12.54;100.00
6030;BME280;3043;42.682;23.376;2023-05-02T00:19:10;95270.19;;;12.53;100.00
6030;BME280;3043;42.682;23.376;2023-05-02T00:21:36;95266.00;;;12.47;100.00
6030;BME280;3043;42.682;23.376;2023-05-02T00:24:01;95268.66;;;12.44;100.00
6030;BME280;3043;42.682;23.376;2023-05-02T00:26:26;95269.56;;;12.43;100.00
6030;BME280;3043;42.682;23.376;2023-05-02T00:28:53;95280.09;;;12.39;100.00
6030;BME280;3043;42.682;23.376;2023-05-02T00:31:18;95273.31;;;12.33;100.00
6030;BME280;3043;42.682;23.376;2023-05-02T00:33:44;95274.06;;;12.37;100.00
6030;BME280;3043;42.682;23.376;2023-05-02T00:36:16;95277.59;;;12.34;100.00
6030;BME280;3043;42.682;23.376;2023-05-02T00:38:42;95273.38;;;12.30;100.00
6030;BME280;3043;42.682;23.376;2023-05-02T00:41:08;95270.78;;;12.30;100.00
6030;BME280;3043;42.682;23.376;2023-05-02T00:43:34;95277.81;;;12.27;100.00
6030;BME280;3043;42.682;23.376;2023-05-02T00:45:59;95285.56;;;12.28;100.00
6030;BME280;3043;42.682;23.376;2023-05-02T00:48:25;95294.22;;;12.27;100.00
6030;BME280;3043;42.682;23.376;2023-05-02T00:50:51;95294.13;;;12.30;100.00
6030;BME280;3043;42.682;23.376;2023-05-02T00:53:16;95294.13;;;12.30;100.00
6030;BME280;3043;42.682;23.376;2023-05-02T00:55:42;95301.88;;;12.32;100.00
6030;BME280;3043;42.682;23.376;2023-05-02T00:58:10;95297.47;;;12.35;100.00
6030;BME280;3043;42.682;23.376;2023-05-02T01:12:05;95283.19;;;12.51;100.00
6030;BME280;3043;42.682;23.376;2023-05-02T01:14:40;95284.00;;;12.53;100.00
6030;BME280;3043;42.682;23.376;2023-05-02T01:17:09;95279.38;;;12.65;100.00
6030;BME280;3043;42.682;23.376;2023-05-02T01:19:38;95286.41;;;12.59;100.00
6030;BME280;3043;42.682;23.376;2023-05-02T01:22:07;95293.00;;;12.73;100.00
6030;BME280;3043;42.682;23.376;2023-05-02T01:29:48;95287.53;;;12.82;100.00
6030;BME280;3043;42.682;23.376;2023-05-02T01:32:15;95278.94;;;12.80;100.00
6030;BME280;3043;42.682;23.376;2023-05-02T01:34:42;95278.84;;;12.83;100.00
6030;BME280;3043;42.682;23.376;2023-05-02T01:37:11;95280.75;;;12.76;100.00
6030;BME280;3043;42.682;23.376;2023-05-02T01:39:39;95285.16;;;12.74;100.00
6030;BME280;3043;42.682;23.376;2023-05-02T01:42:05;95286.97;;;12.71;100.00
6030;BME280;3043;42.682;23.376;2023-05-02T01:44:31;95288.81;;;12.67;100.00
6030;BME280;3043;42.682;23.376;2023-05-02T01:47:00;95283.88;;;12.58;100.00
6030;BME280;3043;42.682;23.376;2023-05-02T01:49:28;95292.47;;;12.60;100.00
6030;BME280;3043;42.682;23.376;2023-05-02T01:52:01;95294.22;;;12.59;100.00
6030;BME280;3043;42.682;23.376;2023-05-02T01:54:28;95293.28;;;12.62;100.00
6030;BME280;3043;42.682;23.376;2023-05-02T01:56:55;95295.88;;;12.62;100.00
6030;BME280;3043;42.682;23.376;2023-05-02T01:59:22;95298.69;;;12.54;100.00
6030;BME280;3043;42.682;23.376;2023-05-02T02:01:50;95287.63;;;12.48;100.00
6030;BME280;3043;42.682;23.376;2023-05-02T02:04:18;95291.25;;;12.42;100.00
6030;BME280;3043;42.682;23.376;2023-05-02T02:06:47;95287.00;;;12.38;100.00
6030;BME280;3043;42.682;23.376;2023-05-02T02:09:12;95281.25;;;12.27;100.00
6030;BME280;3043;42.682;23.376;2023-05-02T02:12:01;95273.78;;;12.15;100.00
6030;BME280;3043;42.682;23.376;2023-05-02T02:14:34;95282.69;;;12.05;100.00
6030;BME280;3043;42.682;23.376;2023-05-02T02:17:05;95273.34;;;12.00;100.00
6030;BME280;3043;42.682;23.376;2023-05-02T02:19:33;95276.13;;;11.92;100.00
6030;BME280;3043;42.682;23.376;2023-05-02T02:21:59;95282.28;;;11.88;100.00
6030;BME280;3043;42.682;23.376;2023-05-02T02:24:25;95278.00;;;11.87;100.00
6030;BME280;3043;42.682;23.376;2023-05-02T02:26:51;95276.28;;;11.86;100.00
6030;BME280;3043;42.682;23.376;2023-05-02T02:29:16;95284.94;;;11.85;100.00
6030;BME280;3043;42.682;23.376;2023-05-02T02:31:42;95274.50;;;11.88;100.00
6030;BME280;3043;42.682;23.376;2023-05-02T02:34:07;95272.72;;;11.90;100.00
6030;BME280;3043;42.682;23.376;2023-05-02T02:36:41;95278.84;;;11.88;100.00
6030;BME280;3043;42.682;23.376;2023-05-02T02:39:37;95276.28;;;11.86;100.00
6030;BME280;3043;42.682;23.376;2023-05-02T02:42:15;95284.13;;;11.85;100.00
6030;BME280;3043;42.682;23.376;2023-05-02T02:51:24;95274.88;;;11.73;100.00
6030;BME280;3043;42.682;23.376;2023-05-02T02:56:44;95274.00;;;11.73;100.00
6030;BME280;3043;42.682;23.376;2023-05-02T02:59:18;95285.41;;;11.67;100.00
6030;BME280;3043;42.682;23.376;2023-05-02T03:01:47;95291.34;;;11.72;100.00
6030;BME280;3043;42.682;23.376;2023-05-02T03:04:19;95290.22;;;11.82;100.00
6030;BME280;3043;42.682;23.376;2023-05-02T03:06:46;95294.59;;;11.79;100.00
6030;BME280;3043;42.682;23.376;2023-05-02T03:09:15;95295.09;;;11.94;100.00
6030;BME280;3043;42.682;23.376;2023-05-02T03:11:43;95301.91;;;11.98;100.00
6030;BME280;3043;42.682;23.376;2023-05-02T03:14:10;95304.56;;;11.97;100.00
6030;BME280;3043;42.682;23.376;2023-05-02T03:16:37;95305.38;;;11.97;100.00
6030;BME280;3043;42.682;23.376;2023-05-02T03:19:04;95313.25;;;11.94;100.00
6030;BME280;3043;42.682;23.376;2023-05-02T03:21:30;95314.22;;;11.90;100.00
6030;BME280;3043;42.682;23.376;2023-05-02T03:24:00;95315.44;;;12.09;100.00
6030;BME280;3043;42.682;23.376;2023-05-02T03:26:26;95324.06;;;12.11;100.00
6030;BME280;3043;42.682;23.376;2023-05-02T03:28:52;95320.63;;;12.09;100.00
6030;BME280;3043;42.682;23.376;2023-05-02T03:31:17;95321.47;;;12.11;100.00
6030;BME280;3043;42.682;23.376;2023-05-02T03:33:43;95327.09;;;12.28;100.00
6030;BME280;3043;42.682;23.376;2023-05-02T03:36:09;95331.78;;;12.46;100.00
6030;BME280;3043;42.682;23.376;2023-05-02T03:38:35;95327.31;;;12.84;100.00
6030;BME280;3043;42.682;23.376;2023-05-02T03:41:01;95330.16;;;13.05;100.00
6030;BME280;3043;42.682;23.376;2023-05-02T03:43:27;95324.13;;;13.34;100.00
6030;BME280;3043;42.682;23.376;2023-05-02T03:45:52;95333.53;;;13.67;100.00
6030;BME280;3043;42.682;23.376;2023-05-02T03:48:18;95331.53;;;14.01;100.00
6030;BME280;3043;42.682;23.376;2023-05-02T03:50:44;95328.72;;;14.35;100.00
6030;BME280;3043;42.682;23.376;2023-05-02T03:53:09;95344.16;;;14.65;100.00
6030;BME280;3043;42.682;23.376;2023-05-02T03:55:41;95347.94;;;15.04;100.00
6030;BME280;3043;42.682;23.376;2023-05-02T03:58:08;95336.63;;;15.28;100.00
6030;BME280;3043;42.682;23.376;2023-05-02T04:00:34;95335.88;;;15.49;100.00
6030;BME280;3043;42.682;23.376;2023-05-02T04:03:03;95337.53;;;15.73;100.00
6030;BME280;3043;42.682;23.376;2023-05-02T04:05:28;95332.38;;;15.93;100.00
6030;BME280;3043;42.682;23.376;2023-05-02T04:07:57;95332.91;;;16.01;100.00
6030;BME280;3043;42.682;23.376;2023-05-02T04:10:22;95335.16;;;16.11;100.00
6030;BME280;3043;42.682;23.376;2023-05-02T04:12:48;95344.13;;;16.25;100.00
6030;BME280;3043;42.682;23.376;2023-05-02T04:15:14;95340.09;;;16.38;100.00
6030;BME280;3043;42.682;23.376;2023-05-02T04:17:39;95347.94;;;16.60;100.00
6030;BME280;3043;42.682;23.376;2023-05-02T04:20:05;95346.22;;;16.79;100.00
6030;BME280;3043;42.682;23.376;2023-05-02T04:22:31;95347.00;;;17.01;100.00
6030;BME280;3043;42.682;23.376;2023-05-02T04:24:57;95346.75;;;17.07;100.00
6030;BME280;3043;42.682;23.376;2023-05-02T04:27:32;95348.16;;;17.14;100.00
6030;BME280;3043;42.682;23.376;2023-05-02T04:29:57;95342.53;;;17.23;100.00
6030;BME280;3043;42.682;23.376;2023-05-02T04:32:23;95349.06;;;17.33;100.00
6030;BME280;3043;42.682;23.376;2023-05-02T04:34:48;95348.88;;;17.17;100.00
6030;BME280;3043;42.682;23.376;2023-05-02T04:37:14;95353.78;;;17.25;100.00
6030;BME280;3043;42.682;23.376;2023-05-02T04:39:39;95357.38;;;17.22;100.00
6030;BME280;3043;42.682;23.376;2023-05-02T04:42:04;95360.81;;;17.23;100.00
6030;BME280;3043;42.682;23.376;2023-05-02T04:44:30;95363.44;;;17.23;100.00
6030;BME280;3043;42.682;23.376;2023-05-02T04:46:55;95359.25;;;17.39;100.00
6030;BME280;3043;42.682;23.376;2023-05-02T04:49:21;95354.78;;;17.41;100.00
6030;BME280;3043;42.682;23.376;2023-05-02T04:51:46;95355.69;;;17.40;100.00
6030;BME280;3043;42.682;23.376;2023-05-02T04:54:12;95347.84;;;17.60;100.00
6030;BME280;3043;42.682;23.376;2023-05-02T04:56:37;95363.25;;;17.85;100.00
6030;BME280;3043;42.682;23.376;2023-05-02T04:59:04;95355.72;;;17.96;100.00
6030;BME280;3043;42.682;23.376;2023-05-02T05:01:30;95350.34;;;18.34;100.00
6030;BME280;3043;42.682;23.376;2023-05-02T05:03:55;95357.13;;;18.74;100.00
6030;BME280;3043;42.682;23.376;2023-05-02T05:06:21;95360.44;;;18.94;99.14
6030;BME280;3043;42.682;23.376;2023-05-02T05:08:47;95370.06;;;19.28;96.65
6030;BME280;3043;42.682;23.376;2023-05-02T05:11:12;95349.78;;;19.31;93.54
6030;BME280;3043;42.682;23.376;2023-05-02T05:13:40;95360.00;;;19.53;92.07
6030;BME280;3043;42.682;23.376;2023-05-02T05:16:06;95350.25;;;19.71;90.00
6030;BME280;3043;42.682;23.376;2023-05-02T05:18:31;95356.97;;;19.61;90.93
6030;BME280;3043;42.682;23.376;2023-05-02T05:21:07;95358.63;;;19.62;89.84
6030;BME280;3043;42.682;23.376;2023-05-02T05:23:33;95361.91;;;19.82;89.17
6030;BME280;3043;42.682;23.376;2023-05-02T05:26:12;95357.44;;;20.31;84.79
6030;BME280;3043;42.682;23.376;2023-05-02T05:28:38;95359.38;;;20.43;83.69
6030;BME280;3043;42.682;23.376;2023-05-02T05:31:11;95367.34;;;20.57;81.59
6030;BME280;3043;42.682;23.376;2023-05-02T05:33:37;95368.72;;;20.78;78.67
6030;BME280;3043;42.682;23.376;2023-05-02T05:36:10;95367.72;;;20.94;77.29
6030;BME280;3043;42.682;23.376;2023-05-02T05:38:36;95374.84;;;20.92;76.50
6030;BME280;3043;42.682;23.376;2023-05-02T05:41:02;95372.06;;;21.25;74.30
6030;BME280;3043;42.682;23.376;2023-05-02T05:43:29;95372.31;;;21.78;71.81
6030;BME280;3043;42.682;23.376;2023-05-02T05:45:55;95377.44;;;22.08;67.05
6030;BME280;3043;42.682;23.376;2023-05-02T05:48:21;95370.59;;;22.32;65.90
6030;BME280;3043;42.682;23.376;2023-05-02T05:50:47;95380.00;;;21.95;64.05
6030;BME280;3043;42.682;23.376;2023-05-02T05:53:13;95386.19;;;21.52;65.20
6030;BME280;3043;42.682;23.376;2023-05-02T05:55:39;95384.06;;;21.15;66.82
6030;BME280;3043;42.682;23.376;2023-05-02T05:58:04;95378.56;;;21.34;67.33
6030;BME280;3043;42.682;23.376;2023-05-02T06:00:32;95375.69;;;21.80;66.02
6030;BME280;3043;42.682;23.376;2023-05-02T06:02:58;95386.13;;;21.82;61.74
6030;BME280;3043;42.682;23.376;2023-05-02T06:05:23;95386.63;;;21.31;64.66
6030;BME280;3043;42.682;23.376;2023-05-02T06:07:49;95395.75;;;21.39;63.80
6030;BME280;3043;42.682;23.376;2023-05-02T06:10:14;95390.50;;;21.53;62.99
6030;BME280;3043;42.682;23.376;2023-05-02T06:12:40;95390.34;;;21.98;60.33
6030;BME280;3043;42.682;23.376;2023-05-02T06:15:06;95391.88;;;22.02;59.41
6030;BME280;3043;42.682;23.376;2023-05-02T06:17:31;95391.09;;;22.14;58.73
6030;BME280;3043;42.682;23.376;2023-05-02T06:19:57;95387.25;;;22.46;58.02
6030;BME280;3043;42.682;23.376;2023-05-02T06:22:22;95379.41;;;22.86;55.77
6030;BME280;3043;42.682;23.376;2023-05-02T06:24:48;95388.47;;;22.55;54.59
6030;BME280;3043;42.682;23.376;2023-05-02T06:27:13;95375.97;;;21.90;56.02
6030;BME280;3043;42.682;23.376;2023-05-02T06:29:38;95380.84;;;21.68;57.82
6030;BME280;3043;42.682;23.376;2023-05-02T06:32:04;95370.19;;;21.41;56.33
6030;BME280;3043;42.682;23.376;2023-05-02T06:34:31;95371.22;;;21.67;57.22
6030;BME280;3043;42.682;23.376;2023-05-02T06:36:57;95381.31;;;22.02;56.19
6030;BME280;3043;42.682;23.376;2023-05-02T06:39:23;95381.59;;;22.12;55.93
6030;BME280;3043;42.682;23.376;2023-05-02T06:41:48;95384.88;;;22.01;54.14
6030;BME280;3043;42.682;23.376;2023-05-02T06:44:14;95374.09;;;22.32;53.56
6030;BME280;3043;42.682;23.376;2023-05-02T06:46:39;95377.00;;;22.68;51.56
6030;BME280;3043;42.682;23.376;2023-05-02T06:49:05;95385.53;;;22.59;50.40
6030;BME280;3043;42.682;23.376;2023-05-02T06:51:30;95370.31;;;22.77;50.08
6030;BME280;3043;42.682;23.376;2023-05-02T06:53:56;95374.69;;;22.23;50.48
6030;BME280;3043;42.682;23.376;2023-05-02T06:56:23;95375.28;;;22.14;51.45
6030;BME280;3043;42.682;23.376;2023-05-02T06:58:50;95374.09;;;22.32;51.04
6030;BME280;3043;42.682;23.376;2023-05-02T07:01:15;95395.03;;;22.89;51.36
6030;BME280;3043;42.682;23.376;2023-05-02T07:03:41;95362.25;;;23.18;49.51
6030;BME280;3043;42.682;23.376;2023-05-02T07:06:06;95363.16;;;23.56;48.27
6030;BME280;3043;42.682;23.376;2023-05-02T07:08:33;95361.03;;;23.36;47.43
6030;BME280;3043;42.682;23.376;2023-05-02T07:10:58;95380.69;;;22.93;48.24
6030;BME280;3043;42.682;23.376;2023-05-02T07:13:24;95372.34;;;22.59;48.56
6030;BME280;3043;42.682;23.376;2023-05-02T07:15:49;95369.72;;;22.45;48.76
6030;BME280;3043;42.682;23.376;2023-05-02T07:18:14;95387.78;;;22.25;48.69
6030;BME280;3043;42.682;23.376;2023-05-02T07:20:40;95386.78;;;22.13;49.24
6030;BME280;3043;42.682;23.376;2023-05-02T07:23:06;95365.03;;;22.36;49.41
6030;BME280;3043;42.682;23.376;2023-05-02T07:25:33;95367.28;;;22.96;48.79
6030;BME280;3043;42.682;23.376;2023-05-02T07:27:59;95359.19;;;23.24;48.00
6030;BME280;3043;42.682;23.376;2023-05-02T07:30:24;95363.59;;;23.62;45.91
6030;BME280;3043;42.682;23.376;2023-05-02T07:32:50;95378.91;;;23.70;45.93
6030;BME280;3043;42.682;23.376;2023-05-02T07:35:15;95370.66;;;23.62;45.88
6030;BME280;3043;42.682;23.376;2023-05-02T07:37:41;95367.91;;;23.51;46.10
6030;BME280;3043;42.682;23.376;2023-05-02T07:40:07;95367.81;;;23.65;45.91
6030;BME280;3043;42.682;23.376;2023-05-02T07:42:33;95389.47;;;23.95;44.17
6030;BME280;3043;42.682;23.376;2023-05-02T07:44:59;95371.72;;;23.72;44.24
6030;BME280;3043;42.682;23.376;2023-05-02T07:47:25;95384.94;;;23.47;45.01
6030;BME280;3043;42.682;23.376;2023-05-02T07:49:54;95393.06;;;23.44;45.00
6030;BME280;3043;42.682;23.376;2023-05-02T07:52:20;95386.16;;;22.90;46.75
6030;BME280;3043;42.682;23.376;2023-05-02T07:54:49;95390.03;;;23.11;45.85
6030;BME280;3043;42.682;23.376;2023-05-02T07:57:15;95384.19;;;23.45;45.59
6030;BME280;3043;42.682;23.376;2023-05-02T07:59:40;95380.38;;;23.74;45.01
6030;BME280;3043;42.682;23.376;2023-05-02T08:02:06;95384.63;;;24.01;44.53
6030;BME280;3043;42.682;23.376;2023-05-02T08:04:32;95380.38;;;23.86;44.58
6030;BME280;3043;42.682;23.376;2023-05-02T08:06:57;95376.38;;;24.06;44.71
6030;BME280;3043;42.682;23.376;2023-05-02T08:09:23;95374.25;;;23.86;43.46
6030;BME280;3043;42.682;23.376;2023-05-02T08:11:48;95378.78;;;22.95;45.29
6030;BME280;3043;42.682;23.376;2023-05-02T08:14:14;95368.75;;;22.87;45.55
6030;BME280;3043;42.682;23.376;2023-05-02T08:16:40;95369.69;;;23.63;44.99
6030;BME280;3043;42.682;23.376;2023-05-02T08:19:06;95376.47;;;24.17;43.34
6030;BME280;3043;42.682;23.376;2023-05-02T08:21:32;95368.41;;;24.55;42.11
6030;BME280;3043;42.682;23.376;2023-05-02T08:23:58;95377.34;;;24.41;42.31
6030;BME280;3043;42.682;23.376;2023-05-02T08:26:23;95382.19;;;24.47;42.47
6030;BME280;3043;42.682;23.376;2023-05-02T08:28:53;95352.78;;;24.39;41.81
6030;BME280;3043;42.682;23.376;2023-05-02T08:31:20;95380.03;;;24.52;41.22
6030;BME280;3043;42.682;23.376;2023-05-02T08:33:46;95368.94;;;24.83;40.61
6030;BME280;3043;42.682;23.376;2023-05-02T08:36:15;95389.66;;;24.89;40.88
6030;BME280;3043;42.682;23.376;2023-05-02T08:38:42;95371.06;;;24.78;40.77
6030;BME280;3043;42.682;23.376;2023-05-02T08:41:12;95367.69;;;24.76;41.50
6030;BME280;3043;42.682;23.376;2023-05-02T08:43:38;95367.19;;;25.29;40.30
6030;BME280;3043;42.682;23.376;2023-05-02T08:46:05;95357.88;;;25.69;40.37
6030;BME280;3043;42.682;23.376;2023-05-02T08:48:39;95363.41;;;26.55;38.31
6030;BME280;3043;42.682;23.376;2023-05-02T08:51:14;95363.16;;;27.32;36.59
6030;BME280;3043;42.682;23.376;2023-05-02T08:53:41;95354.81;;;27.05;36.11
6030;BME280;3043;42.682;23.376;2023-05-02T08:56:07;95388.59;;;27.25;36.31
6030;BME280;3043;42.682;23.376;2023-05-02T08:58:37;95373.41;;;26.62;36.63
6030;BME280;3043;42.682;23.376;2023-05-02T09:01:16;95362.59;;;26.43;37.37
6030;BME280;3043;42.682;23.376;2023-05-02T09:03:44;95362.22;;;25.70;37.16
6030;BME280;3043;42.682;23.376;2023-05-02T09:06:15;95361.03;;;24.94;38.60
6030;BME280;3043;42.682;23.376;2023-05-02T09:08:42;95344.72;;;25.46;38.62
6030;BME280;3043;42.682;23.376;2023-05-02T09:11:09;95335.84;;;26.02;37.62
6030;BME280;3043;42.682;23.376;2023-05-02T09:16:07;95355.47;;;25.66;37.04
6030;BME280;3043;42.682;23.376;2023-05-02T09:18:42;95343.88;;;25.56;36.70
6030;BME280;3043;42.682;23.376;2023-05-02T09:21:10;95347.28;;;25.80;36.84
6030;BME280;3043;42.682;23.376;2023-05-02T09:26:10;95339.72;;;26.74;35.96
6030;BME280;3043;42.682;23.376;2023-05-02T09:28:49;95339.50;;;27.18;35.38
6030;BME280;3043;42.682;23.376;2023-05-02T09:31:20;95343.72;;;27.52;33.71
6030;BME280;3043;42.682;23.376;2023-05-02T09:33:47;95332.97;;;26.70;34.30
6030;BME280;3043;42.682;23.376;2023-05-02T09:36:15;95338.31;;;26.48;35.44
6030;BME280;3043;42.682;23.376;2023-05-02T09:38:42;95334.97;;;25.57;35.34
6030;BME280;3043;42.682;23.376;2023-05-02T09:41:08;95348.19;;;24.77;36.28
6030;BME280;3043;42.682;23.376;2023-05-02T09:43:34;95329.59;;;24.66;36.91
6030;BME280;3043;42.682;23.376;2023-05-02T09:46:05;95339.66;;;24.37;37.16
6030;BME280;3043;42.682;23.376;2023-05-02T09:48:32;95332.34;;;24.05;37.89
6030;BME280;3043;42.682;23.376;2023-05-02T09:51:16;95330.97;;;24.35;38.27
6030;BME280;3043;42.682;23.376;2023-05-02T09:53:43;95335.00;;;24.41;37.78
6030;BME280;3043;42.682;23.376;2023-05-02T09:56:09;95313.22;;;24.25;37.88
6030;BME280;3043;42.682;23.376;2023-05-02T09:58:35;95329.41;;;23.97;38.19
6030;BME280;3043;42.682;23.376;2023-05-02T10:01:00;95320.06;;;23.91;38.83
6030;BME280;3043;42.682;23.376;2023-05-02T10:03:27;95328.75;;;24.06;37.59
6030;BME280;3043;42.682;23.376;2023-05-02T10:05:53;95314.19;;;23.88;38.56
6030;BME280;3043;42.682;23.376;2023-05-02T10:08:19;95304.69;;;23.23;39.39
6030;BME280;3043;42.682;23.376;2023-05-02T10:10:49;95306.13;;;23.02;39.50
6030;BME280;3043;42.682;23.376;2023-05-02T10:13:19;95298.97;;;23.04;39.38
6030;BME280;3043;42.682;23.376;2023-05-02T10:15:49;95305.72;;;23.83;39.83
6030;BME280;3043;42.682;23.376;2023-05-02T10:18:20;95306.16;;;24.49;37.37
6030;BME280;3043;42.682;23.376;2023-05-02T10:21:15;95305.88;;;24.05;37.56
6030;BME280;3043;42.682;23.376;2023-05-02T10:23:42;95288.63;;;23.51;38.69
6030;BME280;3043;42.682;23.376;2023-05-02T10:26:15;95284.59;;;23.58;39.46
6030;BME280;3043;42.682;23.376;2023-05-02T10:28:41;95280.97;;;23.84;39.15
6030;BME280;3043;42.682;23.376;2023-05-02T10:31:12;95289.16;;;24.17;38.96
6030;BME280;3043;42.682;23.376;2023-05-02T10:33:38;95277.81;;;24.38;38.33
6030;BME280;3043;42.682;23.376;2023-05-02T10:36:04;95290.25;;;24.49;37.61
6030;BME280;3043;42.682;23.376;2023-05-02T10:38:31;95270.00;;;24.37;38.13
6030;BME280;3043;42.682;23.376;2023-05-02T10:41:23;95271.94;;;23.99;39.15
6030;BME280;3043;42.682;23.376;2023-05-02T10:43:48;95291.75;;;22.80;39.53
6030;BME280;3043;42.682;23.376;2023-05-02T10:46:37;95267.13;;;22.67;40.14
6030;BME280;3043;42.682;23.376;2023-05-02T10:49:11;95259.53;;;22.36;40.81
6030;BME280;3043;42.682;23.376;2023-05-02T10:51:39;95260.06;;;22.02;41.37
6030;BME280;3043;42.682;23.376;2023-05-02T10:54:24;95270.66;;;21.74;42.43
6030;BME280;3043;42.682;23.376;2023-05-02T10:59:42;95264.84;;;21.55;42.29
6030;BME280;3043;42.682;23.376;2023-05-02T11:05:05;95254.97;;;21.99;42.29
6030;BME280;3043;42.682;23.376;2023-05-02T11:07:32;95254.75;;;22.29;42.92
6030;BME280;3043;42.682;23.376;2023-05-02T11:10:23;95268.31;;;22.63;41.92
6030;BME280;3043;42.682;23.376;2023-05-02T11:12:49;95260.97;;;22.54;42.47
6030;BME280;3043;42.682;23.376;2023-05-02T11:18:04;95260.50;;;22.09;42.79
6030;BME280;3043;42.682;23.376;2023-05-02T11:20:42;95262.13;;;21.43;43.38
6030;BME280;3043;42.682;23.376;2023-05-02T11:25:41;95252.06;;;21.21;45.01
6030;BME280;3043;42.682;23.376;2023-05-02T11:30:59;95220.84;;;21.29;45.74
6030;BME280;3043;42.682;23.376;2023-05-02T11:33:26;95250.00;;;21.40;45.07
6030;BME280;3043;42.682;23.376;2023-05-02T11:35:52;95246.41;;;21.41;45.34
6030;BME280;3043;42.682;23.376;2023-05-02T11:38:19;95254.13;;;21.30;45.75
6030;BME280;3043;42.682;23.376;2023-05-02T11:40:53;95242.84;;;21.14;45.63
6030;BME280;3043;42.682;23.376;2023-05-02T11:43:20;95240.91;;;21.18;45.74
6030;BME280;3043;42.682;23.376;2023-05-02T11:45:46;95241.34;;;21.24;46.04
6030;BME280;3043;42.682;23.376;2023-05-02T11:48:14;95224.94;;;21.47;45.38
6030;BME280;3043;42.682;23.376;2023-05-02T11:50:45;95204.09;;;21.30;46.09
6030;BME280;3043;42.682;23.376;2023-05-02T11:53:15;95211.59;;;20.94;47.55
6030;BME280;3043;42.682;23.376;2023-05-02T11:55:49;95236.22;;;20.79;49.19
6030;BME280;3043;42.682;23.376;2023-05-02T11:58:18;95231.16;;;20.90;47.81
6030;BME280;3043;42.682;23.376;2023-05-02T12:00:45;95226.69;;;21.20;47.75
6030;BME280;3043;42.682;23.376;2023-05-02T12:03:31;95226.41;;;21.10;47.00
6030;BME280;3043;42.682;23.376;2023-05-02T12:06:10;95217.56;;;20.97;48.00
6030;BME280;3043;42.682;23.376;2023-05-02T12:08:37;95228.34;;;20.93;46.72
6030;BME280;3043;42.682;23.376;2023-05-02T12:11:02;95199.38;;;20.79;47.74
6030;BME280;3043;42.682;23.376;2023-05-02T12:13:28;95214.06;;;20.69;48.36
6030;BME280;3043;42.682;23.376;2023-05-02T12:15:55;95188.28;;;20.74;47.43
6030;BME280;3043;42.682;23.376;2023-05-02T12:18:21;95202.84;;;20.65;47.19
6030;BME280;3043;42.682;23.376;2023-05-02T12:20:49;95205.56;;;20.64;46.48
6030;BME280;3043;42.682;23.376;2023-05-02T12:23:15;95198.41;;;20.52;47.31
6030;BME280;3043;42.682;23.376;2023-05-02T12:25:41;95192.41;;;20.50;46.81
6030;BME280;3043;42.682;23.376;2023-05-02T12:28:07;95227.03;;;20.42;46.60
6030;BME280;3043;42.682;23.376;2023-05-02T12:30:34;95192.59;;;20.47;47.83
6030;BME280;3043;42.682;23.376;2023-05-02T12:33:00;95207.41;;;20.48;45.59
6030;BME280;3043;42.682;23.376;2023-05-02T12:35:27;95194.25;;;20.48;45.68
6030;BME280;3043;42.682;23.376;2023-05-02T12:37:53;95172.19;;;20.36;45.74
6030;BME280;3043;42.682;23.376;2023-05-02T12:40:20;95173.41;;;20.45;45.58
6030;BME280;3043;42.682;23.376;2023-05-02T12:43:03;95171.47;;;20.62;45.95
6030;BME280;3043;42.682;23.376;2023-05-02T12:45:30;95171.97;;;20.69;45.01
6030;BME280;3043;42.682;23.376;2023-05-02T12:48:21;95165.91;;;20.53;45.36
6030;BME280;3043;42.682;23.376;2023-05-02T12:50:48;95151.25;;;20.35;45.55
6030;BME280;3043;42.682;23.376;2023-05-02T12:53:14;95142.41;;;20.36;45.16
6030;BME280;3043;42.682;23.376;2023-05-02T12:55:40;95163.44;;;20.36;45.44
6030;BME280;3043;42.682;23.376;2023-05-02T12:58:10;95163.66;;;20.47;45.33
6030;BME280;3043;42.682;23.376;2023-05-02T13:00:40;95159.97;;;20.49;45.70
6030;BME280;3043;42.682;23.376;2023-05-02T13:03:07;95174.19;;;20.47;44.85
6030;BME280;3043;42.682;23.376;2023-05-02T13:05:34;95158.38;;;20.33;44.55
6030;BME280;3043;42.682;23.376;2023-05-02T13:07:59;95157.38;;;20.35;44.94
6030;BME280;3043;42.682;23.376;2023-05-02T13:10:25;95154.13;;;20.16;45.22
6030;BME280;3043;42.682;23.376;2023-05-02T13:12:52;95160.91;;;20.34;45.90
6030;BME280;3043;42.682;23.376;2023-05-02T13:15:17;95160.44;;;20.42;45.30
6030;BME280;3043;42.682;23.376;2023-05-02T13:17:44;95162.72;;;20.48;44.98
6030;BME280;3043;42.682;23.376;2023-05-02T13:20:10;95165.00;;;20.54;44.83
6030;BME280;3043;42.682;23.376;2023-05-02T13:22:35;95174.19;;;20.61;45.30
6030;BME280;3043;42.682;23.376;2023-05-02T13:25:02;95191.09;;;20.43;44.51
6030;BME280;3043;42.682;23.376;2023-05-02T13:27:28;95176.03;;;20.31;45.03
6030;BME280;3043;42.682;23.376;2023-05-02T13:29:53;95172.28;;;20.35;44.67
6030;BME280;3043;42.682;23.376;2023-05-02T13:32:19;95163.63;;;20.33;44.22
6030;BME280;3043;42.682;23.376;2023-05-02T13:34:46;95181.84;;;20.36;43.98
6030;BME280;3043;42.682;23.376;2023-05-02T13:37:11;95156.31;;;20.38;44.66
6030;BME280;3043;42.682;23.376;2023-05-02T13:39:37;95150.69;;;20.44;44.35
6030;BME280;3043;42.682;23.376;2023-05-02T13:42:02;95173.59;;;20.42;43.05
6030;BME280;3043;42.682;23.376;2023-05-02T13:44:29;95160.28;;;20.31;43.41
6030;BME280;3043;42.682;23.376;2023-05-02T13:46:55;95156.78;;;20.30;44.43
6030;BME280;3043;42.682;23.376;2023-05-02T13:49:21;95161.75;;;20.35;44.17
6030;BME280;3043;42.682;23.376;2023-05-02T13:51:46;95159.91;;;20.37;44.42
6030;BME280;3043;42.682;23.376;2023-05-02T13:54:12;95160.44;;;20.28;44.18
6030;BME280;3043;42.682;23.376;2023-05-02T13:56:37;95174.50;;;20.27;44.08